sensor_id;sensor_type;location;lat;lon;timestamp;pressure;altitude;pressure_sealevel;temperature;humidity
55679;BME280;41573;51.446;-2.018;2023-05-15T00:02:17;60816.22;;;-146.73;100.00
55679;BME280;41573;51.446;-2.018;2023-05-15T00:05:04;60816.22;;;-146.73;100.00
55679;BME280;41573;51.446;-2.018;2023-05-15T00:07:30;60816.22;;;-146.73;100.00
55679;BME280;41573;51.446;-2.018;2023-05-15T00:09:56;60816.22;;;-146.73;100.00
55679;BME280;41573;51.446;-2.018;2023-05-15T00:12:22;60816.22;;;-146.73;100.00
55679;BME280;41573;51.446;-2.018;2023-05-15T00:14:47;60816.22;;;-146.73;100.00
55679;BME280;41573;51.446;-2.018;2023-05-15T00:17:13;60816.22;;;-146.73;100.00
55679;BME280;41573;51.446;-2.018;2023-05-15T00:29:53;60816.22;;;-146.73;100.00
55679;BME280;41573;51.446;-2.018;2023-05-15T00:32:19;60816.22;;;-146.73;100.00
55679;BME280;41573;51.446;-2.018;2023-05-15T00:34:44;60816.22;;;-146.73;100.00
55679;BME280;41573;51.446;-2.018;2023-05-15T00:37:22;60816.22;;;-146.73;100.00
55679;BME280;41573;51.446;-2.018;2023-05-15T00:39:48;60816.22;;;-146.73;100.00
55679;BME280;41573;51.446;-2.018;2023-05-15T00:42:14;60816.22;;;-146.73;100.00
55679;BME280;41573;51.446;-2.018;2023-05-15T00:44:40;60816.22;;;-146.73;100.00
55679;BME280;41573;51.446;-2.018;2023-05-15T00:47:09;60816.22;;;-146.73;100.00
55679;BME280;41573;51.446;-2.018;2023-05-15T00:49:36;60816.22;;;-146.73;100.00
55679;BME280;41573;51.446;-2.018;2023-05-15T00:52:05;60816.22;;;-146.73;100.00
55679;BME280;41573;51.446;-2.018;2023-05-15T00:54:32;60816.22;;;-146.73;100.00
55679;BME280;41573;51.446;-2.018;2023-05-15T00:56:58;60816.22;;;-146.73;100.00
55679;BME280;41573;51.446;-2.018;2023-05-15T00:59:29;60816.22;;;-146.73;100.00
55679;BME280;41573;51.446;-2.018;2023-05-15T01:01:54;60816.22;;;-146.73;100.00
55679;BME280;41573;51.446;-2.018;2023-05-15T01:04:20;60816.22;;;-146.73;100.00
55679;BME280;41573;51.446;-2.018;2023-05-15T01:06:46;60816.22;;;-146.73;100.00
55679;BME280;41573;51.446;-2.018;2023-05-15T01:09:43;60816.22;;;-146.73;100.00
55679;BME280;41573;51.446;-2.018;2023-05-15T05:41:38;98324.00;;;8.95;100.00
55679;BME280;41573;51.446;-2.018;2023-05-15T05:44:04;98326.13;;;9.01;100.00
55679;BME280;41573;51.446;-2.018;2023-05-15T06:56:14;98628.81;;;10.13;100.00
55679;BME280;41573;51.446;-2.018;2023-05-15T06:58:39;98652.47;;;10.16;100.00
55679;BME280;41573;51.446;-2.018;2023-05-15T07:01:05;98676.13;;;10.20;100.00
55679;BME280;41573;51.446;-2.018;2023-05-15T07:03:31;98695.06;;;10.26;100.00
55679;BME280;41573;51.446;-2.018;2023-05-15T07:05:57;98717.16;;;10.27;100.00
55679;BME280;41573;51.446;-2.018;2023-05-15T07:08:22;98751.94;;;10.35;100.00
55679;BME280;41573;51.446;-2.018;2023-05-15T07:10:48;98784.31;;;10.40;100.00
55679;BME280;41573;51.446;-2.018;2023-05-15T07:13:15;98818.06;;;10.40;100.00
55679;BME280;41573;51.446;-2.018;2023-05-15T07:15:42;98854.50;;;10.39;100.00
55679;BME280;41573;51.446;-2.018;2023-05-15T07:18:07;98880.47;;;10.57;100.00
55679;BME280;41573;51.446;-2.018;2023-05-15T07:20:32;98905.44;;;10.65;100.00
55679;BME280;41573;51.446;-2.018;2023-05-15T07:22:58;98940.00;;;10.56;100.00
55679;BME280;41573;51.446;-2.018;2023-05-15T07:25:24;98952.78;;;10.62;100.00
55679;BME280;41573;51.446;-2.018;2023-05-15T07:27:50;98965.03;;;10.74;100.00
55679;BME280;41573;51.446;-2.018;2023-05-15T07:30:15;98984.81;;;10.81;100.00
55679;BME280;41573;51.446;-2.018;2023-05-15T07:32:44;99003.63;;;10.90;100.00
55679;BME280;41573;51.446;-2.018;2023-05-15T07:35:10;98991.38;;;11.08;100.00
55679;BME280;41573;51.446;-2.018;2023-05-15T07:37:36;99004.81;;;11.07;100.00
55679;BME280;41573;51.446;-2.018;2023-05-15T07:40:01;99059.41;;;11.12;100.00
55679;BME280;41573;51.446;-2.018;2023-05-15T07:42:28;99080.72;;;11.12;100.00
55679;BME280;41573;51.446;-2.018;2023-05-15T07:44:53;99091.81;;;11.17;100.00
55679;BME280;41573;51.446;-2.018;2023-05-15T07:47:19;99143.00;;;11.21;100.00
55679;BME280;41573;51.446;-2.018;2023-05-15T07:49:45;99191.78;;;11.12;100.00
55679;BME280;41573;51.446;-2.018;2023-05-15T07:52:10;99220.00;;;11.14;100.00
55679;BME280;41573;51.446;-2.018;2023-05-15T07:54:38;99248.63;;;11.01;100.00
55679;BME280;41573;51.446;-2.018;2023-05-15T07:57:05;99278.66;;;11.03;100.00
55679;BME280;41573;51.446;-2.018;2023-05-15T07:59:31;99293.69;;;10.93;100.00
55679;BME280;41573;51.446;-2.018;2023-05-15T08:01:56;99320.63;;;11.11;100.00
55679;BME280;41573;51.446;-2.018;2023-05-15T08:04:22;99337.00;;;11.06;100.00
55679;BME280;41573;51.446;-2.018;2023-05-15T08:06:47;99351.06;;;10.97;100.00
55679;BME280;41573;51.446;-2.018;2023-05-15T08:09:17;99370.56;;;11.09;100.00
55679;BME280;41573;51.446;-2.018;2023-05-15T08:11:46;99378.56;;;11.30;100.00
55679;BME280;41573;51.446;-2.018;2023-05-15T08:14:12;99420.88;;;11.34;100.00
55679;BME280;41573;51.446;-2.018;2023-05-15T08:16:37;99432.38;;;11.35;100.00
55679;BME280;41573;51.446;-2.018;2023-05-15T08:19:03;99458.00;;;11.59;100.00
55679;BME280;41573;51.446;-2.018;2023-05-15T08:21:31;99463.25;;;11.81;100.00
55679;BME280;41573;51.446;-2.018;2023-05-15T08:23:57;99461.25;;;11.95;100.00
55679;BME280;41573;51.446;-2.018;2023-05-15T08:26:23;99466.94;;;11.90;100.00
55679;BME280;41573;51.446;-2.018;2023-05-15T08:28:48;99532.63;;;11.70;100.00
55679;BME280;41573;51.446;-2.018;2023-05-15T08:31:13;99570.25;;;11.55;100.00
55679;BME280;41573;51.446;-2.018;2023-05-15T08:33:40;99566.19;;;11.72;100.00
55679;BME280;41573;51.446;-2.018;2023-05-15T08:36:06;99589.06;;;11.86;100.00
55679;BME280;41573;51.446;-2.018;2023-05-15T08:38:32;99597.06;;;11.98;100.00
55679;BME280;41573;51.446;-2.018;2023-05-15T08:41:15;99613.53;;;12.14;100.00
55679;BME280;41573;51.446;-2.018;2023-05-15T08:43:50;99710.19;;;12.18;100.00
55679;BME280;41573;51.446;-2.018;2023-05-15T08:46:18;99730.66;;;12.51;100.00
55679;BME280;41573;51.446;-2.018;2023-05-15T08:48:44;99717.22;;;12.74;100.00
55679;BME280;41573;51.446;-2.018;2023-05-15T08:51:10;99726.38;;;12.92;100.00
55679;BME280;41573;51.446;-2.018;2023-05-15T08:53:36;99772.75;;;12.91;100.00
55679;BME280;41573;51.446;-2.018;2023-05-15T08:56:02;99788.38;;;12.75;100.00
55679;BME280;41573;51.446;-2.018;2023-05-15T08:58:27;99803.19;;;12.68;100.00
55679;BME280;41573;51.446;-2.018;2023-05-15T09:00:54;99811.75;;;12.39;100.00
55679;BME280;41573;51.446;-2.018;2023-05-15T09:03:19;99822.03;;;12.44;100.00
55679;BME280;41573;51.446;-2.018;2023-05-15T09:05:48;99849.38;;;12.47;100.00
55679;BME280;41573;51.446;-2.018;2023-05-15T09:08:16;99836.94;;;12.69;100.00
55679;BME280;41573;51.446;-2.018;2023-05-15T09:10:44;99844.47;;;12.86;100.00
55679;BME280;41573;51.446;-2.018;2023-05-15T09:13:11;99830.38;;;13.17;100.00
55679;BME280;41573;51.446;-2.018;2023-05-15T09:15:37;99851.41;;;13.10;100.00
55679;BME280;41573;51.446;-2.018;2023-05-15T09:18:03;99863.03;;;12.88;100.00
55679;BME280;41573;51.446;-2.018;2023-05-15T09:20:35;99913.97;;;12.52;100.00
55679;BME280;41573;51.446;-2.018;2023-05-15T09:23:03;99929.47;;;12.24;100.00
55679;BME280;41573;51.446;-2.018;2023-05-15T09:27:59;99940.84;;;12.04;100.00
55679;BME280;41573;51.446;-2.018;2023-05-15T09:30:26;99952.53;;;11.90;100.00
55679;BME280;41573;51.446;-2.018;2023-05-15T09:32:54;99953.72;;;11.86;100.00
55679;BME280;41573;51.446;-2.018;2023-05-15T09:35:38;99956.78;;;11.93;100.00
55679;BME280;41573;51.446;-2.018;2023-05-15T09:38:08;99955.03;;;11.80;100.00
55679;BME280;41573;51.446;-2.018;2023-05-15T09:40:41;99964.59;;;11.96;100.00
55679;BME280;41573;51.446;-2.018;2023-05-15T09:43:10;99951.28;;;12.07;100.00
55679;BME280;41573;51.446;-2.018;2023-05-15T09:45:36;99945.97;;;12.30;100.00
55679;BME280;41573;51.446;-2.018;2023-05-15T09:48:06;99958.25;;;12.55;100.00
55679;BME280;41573;51.446;-2.018;2023-05-15T09:50:36;99959.13;;;12.78;100.00
55679;BME280;41573;51.446;-2.018;2023-05-15T09:53:03;99978.78;;;12.77;100.00
55679;BME280;41573;51.446;-2.018;2023-05-15T09:55:33;99997.75;;;12.85;100.00
55679;BME280;41573;51.446;-2.018;2023-05-15T10:00:31;99988.50;;;13.12;100.00
55679;BME280;41573;51.446;-2.018;2023-05-15T10:03:01;100022.03;;;13.16;100.00
55679;BME280;41573;51.446;-2.018;2023-05-15T10:05:28;100017.25;;;13.31;100.00
55679;BME280;41573;51.446;-2.018;2023-05-15T10:07:54;100018.97;;;13.32;100.00
55679;BME280;41573;51.446;-2.018;2023-05-15T10:10:20;100028.34;;;13.49;100.00
55679;BME280;41573;51.446;-2.018;2023-05-15T10:12:46;100065.03;;;13.58;100.00
55679;BME280;41573;51.446;-2.018;2023-05-15T10:15:12;100106.34;;;13.20;100.00
55679;BME280;41573;51.446;-2.018;2023-05-15T10:17:39;100135.28;;;13.15;100.00
55679;BME280;41573;51.446;-2.018;2023-05-15T10:20:07;100176.50;;;12.77;100.00
55679;BME280;41573;51.446;-2.018;2023-05-15T10:22:39;100182.28;;;12.59;100.00
55679;BME280;41573;51.446;-2.018;2023-05-15T10:25:14;100178.81;;;12.46;100.00
55679;BME280;41573;51.446;-2.018;2023-05-15T10:27:41;100160.25;;;12.45;100.00
55679;BME280;41573;51.446;-2.018;2023-05-15T10:30:09;100155.47;;;12.37;100.00
55679;BME280;41573;51.446;-2.018;2023-05-15T10:32:36;100148.94;;;12.41;100.00
55679;BME280;41573;51.446;-2.018;2023-05-15T10:35:03;100153.19;;;12.44;100.00
55679;BME280;41573;51.446;-2.018;2023-05-15T10:37:30;100151.81;;;12.62;100.00
55679;BME280;41573;51.446;-2.018;2023-05-15T10:39:56;100139.84;;;12.90;100.00
55679;BME280;41573;51.446;-2.018;2023-05-15T10:42:24;100151.06;;;13.07;100.00
55679;BME280;41573;51.446;-2.018;2023-05-15T10:44:52;100162.41;;;13.33;100.00
55679;BME280;41573;51.446;-2.018;2023-05-15T10:47:18;100152.59;;;13.45;100.00
55679;BME280;41573;51.446;-2.018;2023-05-15T10:49:43;100152.09;;;13.51;100.00
55679;BME280;41573;51.446;-2.018;2023-05-15T10:52:08;100183.44;;;13.26;100.00
55679;BME280;41573;51.446;-2.018;2023-05-15T10:54:34;100207.94;;;12.98;100.00
55679;BME280;41573;51.446;-2.018;2023-05-15T10:57:00;100201.44;;;12.89;100.00
55679;BME280;41573;51.446;-2.018;2023-05-15T10:59:33;100201.31;;;12.90;100.00
55679;BME280;41573;51.446;-2.018;2023-05-15T11:02:24;100198.50;;;13.16;100.00
55679;BME280;41573;51.446;-2.018;2023-05-15T11:04:58;100213.81;;;13.25;100.00
55679;BME280;41573;51.446;-2.018;2023-05-15T11:07:24;100201.47;;;13.47;100.00
55679;BME280;41573;51.446;-2.018;2023-05-15T11:09:50;100208.16;;;13.64;100.00
55679;BME280;41573;51.446;-2.018;2023-05-15T11:12:16;100202.94;;;13.74;100.00
55679;BME280;41573;51.446;-2.018;2023-05-15T11:17:31;100195.56;;;14.21;100.00
55679;BME280;41573;51.446;-2.018;2023-05-15T11:19:58;100247.22;;;14.01;100.00
55679;BME280;41573;51.446;-2.018;2023-05-15T11:22:27;100260.34;;;14.15;100.00
55679;BME280;41573;51.446;-2.018;2023-05-15T11:24:59;100278.72;;;14.08;100.00
55679;BME280;41573;51.446;-2.018;2023-05-15T11:27:28;100253.88;;;14.18;100.00
55679;BME280;41573;51.446;-2.018;2023-05-15T11:35:30;100309.47;;;13.57;100.00
55679;BME280;41573;51.446;-2.018;2023-05-15T11:40:42;100353.22;;;12.97;100.00
55679;BME280;41573;51.446;-2.018;2023-05-15T11:43:21;100330.13;;;12.96;100.00
55679;BME280;41573;51.446;-2.018;2023-05-15T11:45:53;100301.78;;;13.17;100.00
55679;BME280;41573;51.446;-2.018;2023-05-15T11:48:21;100290.63;;;13.48;100.00
55679;BME280;41573;51.446;-2.018;2023-05-15T11:50:47;100294.63;;;13.53;100.00
55679;BME280;41573;51.446;-2.018;2023-05-15T11:53:14;100292.69;;;13.67;100.00
55679;BME280;41573;51.446;-2.018;2023-05-15T11:55:41;100295.28;;;13.91;100.00
55679;BME280;41573;51.446;-2.018;2023-05-15T11:58:16;100314.88;;;14.14;100.00
55679;BME280;41573;51.446;-2.018;2023-05-15T12:00:42;100323.03;;;14.12;100.00
55679;BME280;41573;51.446;-2.018;2023-05-15T12:03:21;100294.16;;;14.39;100.00
55679;BME280;41573;51.446;-2.018;2023-05-15T12:05:48;100304.38;;;14.45;100.00
55679;BME280;41573;51.446;-2.018;2023-05-15T12:08:13;100317.91;;;14.21;100.00
55679;BME280;41573;51.446;-2.018;2023-05-15T12:10:48;100332.16;;;13.87;100.00
55679;BME280;41573;51.446;-2.018;2023-05-15T12:13:16;100321.44;;;13.76;100.00
55679;BME280;41573;51.446;-2.018;2023-05-15T12:15:45;100349.53;;;13.35;100.00
55679;BME280;41573;51.446;-2.018;2023-05-15T12:18:12;100348.44;;;13.37;100.00
55679;BME280;41573;51.446;-2.018;2023-05-15T12:20:39;100330.56;;;13.73;100.00
55679;BME280;41573;51.446;-2.018;2023-05-15T12:23:09;100312.31;;;13.90;100.00
55679;BME280;41573;51.446;-2.018;2023-05-15T12:25:35;100296.84;;;14.27;100.00
55679;BME280;41573;51.446;-2.018;2023-05-15T12:28:02;100276.72;;;14.56;100.00
55679;BME280;41573;51.446;-2.018;2023-05-15T12:30:32;100276.31;;;14.60;100.00
55679;BME280;41573;51.446;-2.018;2023-05-15T12:33:03;100317.28;;;14.62;100.00
55679;BME280;41573;51.446;-2.018;2023-05-15T12:35:31;100322.41;;;14.54;100.00
55679;BME280;41573;51.446;-2.018;2023-05-15T12:37:58;100350.44;;;14.27;100.00
55679;BME280;41573;51.446;-2.018;2023-05-15T12:40:24;100367.31;;;13.94;100.00
55679;BME280;41573;51.446;-2.018;2023-05-15T12:42:51;100386.63;;;13.75;100.00
55679;BME280;41573;51.446;-2.018;2023-05-15T12:45:19;100398.66;;;13.69;100.00
55679;BME280;41573;51.446;-2.018;2023-05-15T12:47:47;100383.97;;;13.86;100.00
55679;BME280;41573;51.446;-2.018;2023-05-15T12:50:19;100378.00;;;13.83;100.00
55679;BME280;41573;51.446;-2.018;2023-05-15T12:52:49;100379.81;;;13.71;100.00
55679;BME280;41573;51.446;-2.018;2023-05-15T12:55:16;100386.72;;;13.62;100.00
55679;BME280;41573;51.446;-2.018;2023-05-15T12:57:42;100375.41;;;13.70;100.00
55679;BME280;41573;51.446;-2.018;2023-05-15T13:00:11;100369.38;;;13.90;100.00
55679;BME280;41573;51.446;-2.018;2023-05-15T13:02:42;100363.81;;;14.16;100.00
55679;BME280;41573;51.446;-2.018;2023-05-15T13:05:07;100385.97;;;14.29;100.00
55679;BME280;41573;51.446;-2.018;2023-05-15T13:07:33;100395.47;;;14.34;100.00
55679;BME280;41573;51.446;-2.018;2023-05-15T13:10:05;100392.78;;;14.22;100.00
55679;BME280;41573;51.446;-2.018;2023-05-15T13:12:44;100430.59;;;13.95;100.00
55679;BME280;41573;51.446;-2.018;2023-05-15T13:18:13;100450.28;;;13.58;100.00
55679;BME280;41573;51.446;-2.018;2023-05-15T13:23:06;100435.53;;;13.77;100.00
55679;BME280;41573;51.446;-2.018;2023-05-15T13:25:33;100424.28;;;13.96;100.00
55679;BME280;41573;51.446;-2.018;2023-05-15T13:28:00;100433.91;;;14.10;100.00
55679;BME280;41573;51.446;-2.018;2023-05-15T13:30:28;100450.47;;;14.15;100.00
55679;BME280;41573;51.446;-2.018;2023-05-15T13:32:53;100430.91;;;14.37;100.00
55679;BME280;41573;51.446;-2.018;2023-05-15T13:35:19;100405.47;;;14.77;100.00
55679;BME280;41573;51.446;-2.018;2023-05-15T13:37:44;100414.34;;;14.89;100.00
55679;BME280;41573;51.446;-2.018;2023-05-15T13:40:11;100389.41;;;15.09;100.00
55679;BME280;41573;51.446;-2.018;2023-05-15T13:42:38;100419.47;;;15.36;100.00
55679;BME280;41573;51.446;-2.018;2023-05-15T13:45:05;100458.16;;;15.65;100.00
55679;BME280;41573;51.446;-2.018;2023-05-15T13:47:31;100479.44;;;15.90;100.00
55679;BME280;41573;51.446;-2.018;2023-05-15T13:49:56;100469.28;;;15.61;100.00
55679;BME280;41573;51.446;-2.018;2023-05-15T13:52:22;100479.50;;;15.67;100.00
55679;BME280;41573;51.446;-2.018;2023-05-15T13:54:48;100497.84;;;15.50;100.00
55679;BME280;41573;51.446;-2.018;2023-05-15T13:57:13;100490.91;;;15.48;100.00
55679;BME280;41573;51.446;-2.018;2023-05-15T13:59:38;100478.72;;;15.44;100.00
55679;BME280;41573;51.446;-2.018;2023-05-15T14:02:04;100459.56;;;15.48;100.00
55679;BME280;41573;51.446;-2.018;2023-05-15T14:04:29;100431.50;;;15.74;100.00
55679;BME280;41573;51.446;-2.018;2023-05-15T14:06:54;100425.59;;;15.91;100.00
55679;BME280;41573;51.446;-2.018;2023-05-15T14:09:20;100470.78;;;15.75;100.00
55679;BME280;41573;51.446;-2.018;2023-05-15T14:11:45;100487.97;;;15.51;100.00
55679;BME280;41573;51.446;-2.018;2023-05-15T14:14:11;100481.53;;;15.42;100.00
55679;BME280;41573;51.446;-2.018;2023-05-15T14:16:36;100465.31;;;15.44;100.00
55679;BME280;41573;51.446;-2.018;2023-05-15T14:19:02;100437.63;;;15.64;100.00
55679;BME280;41573;51.446;-2.018;2023-05-15T14:21:27;100442.25;;;15.74;100.00
55679;BME280;41573;51.446;-2.018;2023-05-15T14:23:53;100465.41;;;15.75;100.00
55679;BME280;41573;51.446;-2.018;2023-05-15T14:26:18;100460.66;;;15.78;100.00
55679;BME280;41573;51.446;-2.018;2023-05-15T14:28:43;100460.13;;;15.52;100.00
55679;BME280;41573;51.446;-2.018;2023-05-15T14:31:10;100486.34;;;15.16;100.00
55679;BME280;41573;51.446;-2.018;2023-05-15T14:33:35;100505.13;;;15.05;100.00
55679;BME280;41573;51.446;-2.018;2023-05-15T14:36:01;100518.91;;;15.00;100.00
55679;BME280;41573;51.446;-2.018;2023-05-15T14:38:28;100528.03;;;14.86;100.00
55679;BME280;41573;51.446;-2.018;2023-05-15T14:40:54;100535.25;;;14.97;100.00
55679;BME280;41573;51.446;-2.018;2023-05-15T14:43:19;100531.22;;;14.91;100.00
55679;BME280;41573;51.446;-2.018;2023-05-15T14:45:44;100509.53;;;14.94;100.00
55679;BME280;41573;51.446;-2.018;2023-05-15T14:48:10;100469.66;;;15.12;100.00
55679;BME280;41573;51.446;-2.018;2023-05-15T14:50:36;100455.09;;;15.26;100.00
55679;BME280;41573;51.446;-2.018;2023-05-15T14:53:01;100473.88;;;15.15;100.00
55679;BME280;41573;51.446;-2.018;2023-05-15T14:55:26;100518.28;;;14.85;100.00
55679;BME280;41573;51.446;-2.018;2023-05-15T14:57:52;100487.00;;;14.86;100.00
55679;BME280;41573;51.446;-2.018;2023-05-15T15:00:17;100475.38;;;14.96;100.00
55679;BME280;41573;51.446;-2.018;2023-05-15T15:02:43;100474.66;;;15.06;100.00
55679;BME280;41573;51.446;-2.018;2023-05-15T15:05:08;100520.13;;;14.85;100.00
55679;BME280;41573;51.446;-2.018;2023-05-15T15:07:57;100511.97;;;14.97;100.00
55679;BME280;41573;51.446;-2.018;2023-05-15T15:10:23;100521.47;;;15.02;100.00
55679;BME280;41573;51.446;-2.018;2023-05-15T15:12:50;100508.03;;;15.13;100.00
55679;BME280;41573;51.446;-2.018;2023-05-15T15:15:16;100540.38;;;15.00;100.00
55679;BME280;41573;51.446;-2.018;2023-05-15T15:17:41;100531.69;;;14.85;100.00
55679;BME280;41573;51.446;-2.018;2023-05-15T15:20:07;100498.44;;;14.88;100.00
55679;BME280;41573;51.446;-2.018;2023-05-15T15:22:33;100480.66;;;14.64;100.00
55679;BME280;41573;51.446;-2.018;2023-05-15T15:24:59;100481.19;;;14.45;100.00
55679;BME280;41573;51.446;-2.018;2023-05-15T15:27:25;100529.88;;;14.27;100.00
55679;BME280;41573;51.446;-2.018;2023-05-15T15:29:50;100510.34;;;14.14;100.00
55679;BME280;41573;51.446;-2.018;2023-05-15T15:32:16;100498.00;;;14.24;100.00
55679;BME280;41573;51.446;-2.018;2023-05-15T15:34:41;100484.38;;;14.50;100.00
55679;BME280;41573;51.446;-2.018;2023-05-15T15:37:07;100462.50;;;14.79;100.00
55679;BME280;41573;51.446;-2.018;2023-05-15T15:39:32;100477.34;;;14.83;100.00
55679;BME280;41573;51.446;-2.018;2023-05-15T15:41:57;100505.63;;;14.98;100.00
55679;BME280;41573;51.446;-2.018;2023-05-15T15:44:23;100543.53;;;15.05;100.00
55679;BME280;41573;51.446;-2.018;2023-05-15T15:46:48;100532.19;;;15.24;100.00
55679;BME280;41573;51.446;-2.018;2023-05-15T15:49:14;100553.28;;;15.17;100.00
55679;BME280;41573;51.446;-2.018;2023-05-15T15:51:39;100540.09;;;15.26;100.00
55679;BME280;41573;51.446;-2.018;2023-05-15T15:54:07;100522.25;;;15.47;100.00
55679;BME280;41573;51.446;-2.018;2023-05-15T15:56:33;100496.22;;;15.71;100.00
55679;BME280;41573;51.446;-2.018;2023-05-15T15:58:58;100528.28;;;15.83;100.00
55679;BME280;41573;51.446;-2.018;2023-05-15T16:01:24;100523.16;;;15.80;100.00
55679;BME280;41573;51.446;-2.018;2023-05-15T16:03:50;100557.81;;;15.83;100.00
55679;BME280;41573;51.446;-2.018;2023-05-15T16:06:15;100572.38;;;15.58;100.00
55679;BME280;41573;51.446;-2.018;2023-05-15T16:08:40;100589.72;;;15.43;100.00
55679;BME280;41573;51.446;-2.018;2023-05-15T16:11:06;100605.94;;;15.41;100.00
55679;BME280;41573;51.446;-2.018;2023-05-15T16:13:31;100601.31;;;15.32;100.00
55679;BME280;41573;51.446;-2.018;2023-05-15T16:15:57;100623.50;;;15.34;100.00
55679;BME280;41573;51.446;-2.018;2023-05-15T16:18:22;100595.09;;;15.43;100.00
55679;BME280;41573;51.446;-2.018;2023-05-15T16:20:48;100583.50;;;15.42;100.00
55679;BME280;41573;51.446;-2.018;2023-05-15T16:23:13;100538.44;;;15.57;100.00
55679;BME280;41573;51.446;-2.018;2023-05-15T16:25:40;100531.34;;;15.67;100.00
55679;BME280;41573;51.446;-2.018;2023-05-15T16:28:06;100556.25;;;15.69;100.00
55679;BME280;41573;51.446;-2.018;2023-05-15T16:30:32;100566.97;;;15.69;100.00
55679;BME280;41573;51.446;-2.018;2023-05-15T16:32:58;100582.59;;;15.64;100.00
55679;BME280;41573;51.446;-2.018;2023-05-15T16:35:23;100570.13;;;15.75;100.00
55679;BME280;41573;51.446;-2.018;2023-05-15T16:37:49;100595.31;;;15.62;100.00
55679;BME280;41573;51.446;-2.018;2023-05-15T16:40:15;100606.91;;;15.51;100.00
55679;BME280;41573;51.446;-2.018;2023-05-15T16:42:40;100601.41;;;15.42;100.00
55679;BME280;41573;51.446;-2.018;2023-05-15T16:45:06;100567.41;;;15.42;100.00
55679;BME280;41573;51.446;-2.018;2023-05-15T16:47:32;100534.06;;;15.56;100.00
55679;BME280;41573;51.446;-2.018;2023-05-15T16:49:57;100536.13;;;15.64;100.00
55679;BME280;41573;51.446;-2.018;2023-05-15T16:52:23;100560.69;;;15.48;100.00
55679;BME280;41573;51.446;-2.018;2023-05-15T16:54:49;100541.66;;;15.40;100.00
55679;BME280;41573;51.446;-2.018;2023-05-15T16:57:14;100563.13;;;15.40;100.00
55679;BME280;41573;51.446;-2.018;2023-05-15T16:59:40;100524.31;;;15.55;100.00
55679;BME280;41573;51.446;-2.018;2023-05-15T17:02:05;100507.69;;;15.61;100.00
55679;BME280;41573;51.446;-2.018;2023-05-15T17:04:31;100500.19;;;15.44;100.00
55679;BME280;41573;51.446;-2.018;2023-05-15T17:06:59;100543.38;;;15.41;100.00
55679;BME280;41573;51.446;-2.018;2023-05-15T17:09:25;100533.03;;;15.25;100.00
55679;BME280;41573;51.446;-2.018;2023-05-15T17:11:50;100544.13;;;15.31;100.00
55679;BME280;41573;51.446;-2.018;2023-05-15T17:14:16;100531.91;;;15.27;100.00
55679;BME280;41573;51.446;-2.018;2023-05-15T17:16:41;100550.22;;;15.22;100.00
55679;BME280;41573;51.446;-2.018;2023-05-15T17:19:07;100556.31;;;15.24;100.00
55679;BME280;41573;51.446;-2.018;2023-05-15T17:21:33;100567.75;;;15.26;100.00
55679;BME280;41573;51.446;-2.018;2023-05-15T17:24:01;100586.78;;;15.23;100.00
55679;BME280;41573;51.446;-2.018;2023-05-15T17:26:27;100614.84;;;15.19;100.00
55679;BME280;41573;51.446;-2.018;2023-05-15T17:28:52;100636.66;;;15.03;100.00
55679;BME280;41573;51.446;-2.018;2023-05-15T17:31:17;100629.25;;;15.07;100.00
55679;BME280;41573;51.446;-2.018;2023-05-15T17:33:43;100629.72;;;15.12;100.00
55679;BME280;41573;51.446;-2.018;2023-05-15T17:36:09;100629.09;;;14.97;100.00
55679;BME280;41573;51.446;-2.018;2023-05-15T17:38:34;100625.34;;;14.99;100.00
55679;BME280;41573;51.446;-2.018;2023-05-15T17:41:00;100633.84;;;15.05;100.00
55679;BME280;41573;51.446;-2.018;2023-05-15T17:43:25;100612.78;;;15.11;100.00
55679;BME280;41573;51.446;-2.018;2023-05-15T17:45:51;100606.31;;;15.14;100.00
55679;BME280;41573;51.446;-2.018;2023-05-15T17:48:16;100651.03;;;15.02;100.00
55679;BME280;41573;51.446;-2.018;2023-05-15T17:50:42;100621.78;;;15.10;100.00
55679;BME280;41573;51.446;-2.018;2023-05-15T17:53:07;100644.13;;;15.11;100.00
55679;BME280;41573;51.446;-2.018;2023-05-15T17:55:32;100638.50;;;15.14;100.00
55679;BME280;41573;51.446;-2.018;2023-05-15T17:57:58;100635.44;;;15.07;100.00
55679;BME280;41573;51.446;-2.018;2023-05-15T18:00:23;100658.63;;;15.08;100.00
55679;BME280;41573;51.446;-2.018;2023-05-15T18:02:48;100712.16;;;15.10;100.00
55679;BME280;41573;51.446;-2.018;2023-05-15T18:05:14;100704.38;;;15.18;100.00
55679;BME280;41573;51.446;-2.018;2023-05-15T18:07:39;100682.41;;;15.24;100.00
55679;BME280;41573;51.446;-2.018;2023-05-15T18:10:07;100679.09;;;15.21;100.00
55679;BME280;41573;51.446;-2.018;2023-05-15T18:12:32;100700.69;;;15.19;100.00
55679;BME280;41573;51.446;-2.018;2023-05-15T18:14:59;100694.63;;;15.28;100.00
55679;BME280;41573;51.446;-2.018;2023-05-15T18:17:24;100771.94;;;15.34;100.00
55679;BME280;41573;51.446;-2.018;2023-05-15T18:19:50;100777.91;;;15.27;100.00
55679;BME280;41573;51.446;-2.018;2023-05-15T18:22:15;100770.44;;;15.19;100.00
55679;BME280;41573;51.446;-2.018;2023-05-15T18:24:41;100807.75;;;15.11;100.00
55679;BME280;41573;51.446;-2.018;2023-05-15T18:27:06;100816.56;;;15.24;100.00
55679;BME280;41573;51.446;-2.018;2023-05-15T18:29:31;100793.94;;;15.51;100.00
55679;BME280;41573;51.446;-2.018;2023-05-15T18:31:57;100777.03;;;15.96;100.00
55679;BME280;41573;51.446;-2.018;2023-05-15T18:34:22;100826.47;;;15.82;100.00
55679;BME280;41573;51.446;-2.018;2023-05-15T18:36:48;100892.94;;;15.78;100.00
55679;BME280;41573;51.446;-2.018;2023-05-15T18:39:16;100923.56;;;15.76;100.00
55679;BME280;41573;51.446;-2.018;2023-05-15T18:41:42;100908.34;;;15.52;100.00
55679;BME280;41573;51.446;-2.018;2023-05-15T18:44:08;100893.56;;;15.35;100.00